Time;durP1;ratioP1;P1;durP2;ratioP2;P2;SDS_P1;SDS_P2;PMS_P1;PMS_P2;Temp;Humidity;BMP_temperature;BMP_pressure;BME280_temperature;BME280_humidity;BME280_pressure;Samples;Min_cycle;Max_cycle;Signal;HPM_P1;HPM_P2
2022/03/05 00:01:04;;;;;;;10.77;4.10;;;2.00;77.20;;;;;;5020202;28;20119;-79
2022/03/05 00:03:32;;;;;;;7.43;3.63;;;2.00;77.20;;;;;;5022951;28;20481;-79
2022/03/05 00:06:02;;;;;;;9.07;4.03;;;1.90;77.30;;;;;;5043675;28;20560;-80
2022/03/05 00:08:29;;;;;;;8.13;3.67;;;1.90;77.40;;;;;;5045593;28;20094;-80
2022/03/05 00:10:59;;;;;;;9.47;4.00;;;1.90;77.60;;;;;;5027881;28;20061;-79
2022/03/05 00:13:29;;;;;;;11.37;4.87;;;1.90;77.60;;;;;;5044111;28;20099;-79
2022/03/05 00:15:57;;;;;;;9.60;4.03;;;1.80;77.50;;;;;;5047724;28;20096;-79
2022/03/05 00:18:25;;;;;;;6.17;3.00;;;1.80;77.60;;;;;;5038102;28;20076;-82
2022/03/05 00:21:00;;;;;;;6.88;2.80;;;1.80;77.70;;;;;;5020262;28;20037;-82
2022/03/05 00:27:43;;;;;;;8.18;3.53;;;1.70;77.90;;;;;;5049039;28;20104;-84
2022/03/05 00:30:11;;;;;;;12.13;4.30;;;1.70;77.90;;;;;;5061739;28;20037;-84
2022/03/05 00:32:38;;;;;;;9.60;3.67;;;1.60;77.90;;;;;;5019977;28;20076;-78
2022/03/05 00:35:07;;;;;;;9.20;3.77;;;1.60;78.00;;;;;;5035946;28;20066;-78
2022/03/05 00:37:34;;;;;;;8.90;3.40;;;1.60;78.10;;;;;;5018405;28;20049;-78
2022/03/05 00:40:01;;;;;;;8.60;3.53;;;1.60;78.20;;;;;;5018615;28;20465;-79
2022/03/05 00:42:29;;;;;;;10.23;3.80;;;1.60;78.30;;;;;;5035445;28;20051;-79
2022/03/05 00:44:56;;;;;;;10.57;3.33;;;1.50;78.30;;;;;;5066591;28;20101;-79
2022/03/05 00:47:23;;;;;;;8.17;3.07;;;1.50;78.40;;;;;;5059130;28;20082;-79
2022/03/05 00:49:50;;;;;;;7.10;2.60;;;1.50;78.50;;;;;;5032719;28;20094;-79
2022/03/05 00:52:18;;;;;;;8.87;3.20;;;1.50;78.40;;;;;;5022863;28;20489;-78
2022/03/05 00:54:46;;;;;;;8.10;3.17;;;1.50;78.60;;;;;;5038236;28;20131;-79
2022/03/05 00:57:14;;;;;;;6.63;2.73;;;1.40;78.70;;;;;;5022290;28;20056;-79
2022/03/05 00:59:41;;;;;;;7.50;2.80;;;1.40;78.70;;;;;;5022354;28;20055;-79
2022/03/05 01:02:09;;;;;;;7.33;2.57;;;1.40;78.70;;;;;;5022918;28;20139;-79
2022/03/05 01:04:36;;;;;;;6.53;2.30;;;1.40;79.40;;;;;;5022383;28;20452;-79
2022/03/05 01:07:04;;;;;;;7.17;2.77;;;1.40;78.90;;;;;;5038657;28;20036;-79
2022/03/05 01:09:32;;;;;;;7.80;2.70;;;1.30;78.90;;;;;;5038694;28;20416;-79
2022/03/05 01:11:58;;;;;;;5.87;2.47;;;1.30;79.00;;;;;;5055198;28;20053;-79
2022/03/05 01:14:28;;;;;;;7.47;2.93;;;1.30;79.10;;;;;;5043151;28;20055;-79
2022/03/05 01:16:55;;;;;;;7.67;3.10;;;1.30;79.20;;;;;;5055347;28;20050;-79
2022/03/05 01:19:22;;;;;;;7.27;2.60;;;1.20;79.10;;;;;;5038663;28;20441;-79
2022/03/05 01:21:49;;;;;;;8.47;2.60;;;1.30;79.30;;;;;;5021877;28;20040;-79
2022/03/05 01:24:17;;;;;;;7.03;2.63;;;1.20;79.20;;;;;;5054757;28;20101;-79
2022/03/05 01:26:44;;;;;;;6.10;2.20;;;1.20;79.40;;;;;;5038849;28;20047;-79
2022/03/05 01:29:12;;;;;;;7.63;2.97;;;1.20;79.40;;;;;;5021947;28;20047;-79
2022/03/05 01:31:39;;;;;;;7.67;3.00;;;1.20;79.40;;;;;;5054835;28;20572;-79
2022/03/05 01:34:06;;;;;;;7.03;2.17;;;1.20;79.40;;;;;;5038489;28;20106;-79
2022/03/05 01:36:33;;;;;;;9.43;2.97;;;1.10;79.40;;;;;;5038277;28;20040;-79
2022/03/05 01:39:00;;;;;;;6.30;2.67;;;1.10;79.50;;;;;;5054764;28;20491;-79
2022/03/05 01:41:28;;;;;;;9.33;2.60;;;1.10;79.60;;;;;;5038302;28;20089;-79
2022/03/05 01:43:55;;;;;;;6.70;2.60;;;1.10;79.70;;;;;;5038396;28;20110;-79
2022/03/05 01:46:32;;;;;;;6.83;3.10;;;1.10;79.80;;;;;;5054855;28;20127;-79
2022/03/05 01:49:00;;;;;;;8.33;3.10;;;1.00;79.70;;;;;;5037923;28;20075;-79
2022/03/05 01:51:28;;;;;;;6.53;2.97;;;1.00;79.80;;;;;;5038443;28;20408;-79
2022/03/05 01:53:55;;;;;;;6.83;2.50;;;1.00;79.80;;;;;;5037956;28;20052;-79
2022/03/05 01:56:24;;;;;;;9.13;3.70;;;1.00;79.90;;;;;;5037780;28;20041;-79
2022/03/05 01:58:52;;;;;;;7.80;3.40;;;0.90;79.90;;;;;;5037797;28;20049;-78
2022/03/05 02:01:24;;;;;;;10.10;3.37;;;0.90;80.00;;;;;;5037926;28;20044;-78
2022/03/05 02:03:52;;;;;;;9.02;3.17;;;0.90;80.10;;;;;;5037757;28;20079;-79
2022/03/05 02:06:19;;;;;;;9.27;3.63;;;0.80;80.10;;;;;;5037638;28;20040;-79
2022/03/05 02:08:47;;;;;;;7.37;2.70;;;0.80;80.10;;;;;;5038056;28;20373;-79
2022/03/05 02:11:14;;;;;;;10.40;3.30;;;0.80;80.20;;;;;;5037668;28;20044;-79
2022/03/05 02:13:42;;;;;;;8.40;3.00;;;0.80;80.20;;;;;;5037856;28;20047;-79
2022/03/05 02:16:11;;;;;;;8.67;2.93;;;0.80;80.20;;;;;;5021970;28;20174;-79
2022/03/05 02:18:43;;;;;;;7.73;3.20;;;0.80;80.30;;;;;;5037800;28;20098;-79
2022/03/05 02:21:11;;;;;;;9.23;3.97;;;0.80;80.30;;;;;;5021844;28;20052;-79
2022/03/05 02:23:38;;;;;;;8.77;3.17;;;0.80;80.30;;;;;;5004932;28;20079;-79
2022/03/05 02:26:05;;;;;;;7.67;3.27;;;0.70;80.40;;;;;;5056339;28;20041;-78
2022/03/05 02:28:33;;;;;;;10.20;3.47;;;0.70;80.40;;;;;;5041205;28;20489;-79
2022/03/05 02:31:00;;;;;;;8.03;3.60;;;0.70;80.50;;;;;;5041104;28;20488;-79
2022/03/05 02:33:27;;;;;;;10.73;3.30;;;0.70;80.50;;;;;;5041018;28;20568;-79
2022/03/05 02:35:54;;;;;;;8.00;2.87;;;0.70;80.50;;;;;;5041165;28;20044;-79
2022/03/05 02:38:23;;;;;;;11.00;4.53;;;0.60;80.50;;;;;;5057370;28;20460;-79
2022/03/05 02:40:52;;;;;;;9.40;3.87;;;0.60;80.60;;;;;;5075438;28;20094;-79
2022/03/05 02:43:23;;;;;;;8.80;3.47;;;0.60;80.60;;;;;;5040751;28;20052;-79
2022/03/05 02:45:51;;;;;;;10.63;3.90;;;0.60;80.70;;;;;;5025724;28;20040;-79
2022/03/05 02:48:19;;;;;;;8.47;3.47;;;0.60;80.80;;;;;;5041671;28;20086;-79
2022/03/05 02:50:48;;;;;;;9.37;3.80;;;0.60;80.80;;;;;;5057853;28;20047;-79
2022/03/05 02:53:18;;;;;;;9.70;3.50;;;0.60;80.80;;;;;;5057859;28;20484;-79
2022/03/05 02:55:46;;;;;;;8.03;3.03;;;0.60;80.80;;;;;;5057337;28;20102;-79
2022/03/05 02:58:13;;;;;;;7.37;2.97;;;0.50;80.80;;;;;;5075368;28;20041;-79
2022/03/05 03:00:40;;;;;;;8.97;3.77;;;0.50;80.90;;;;;;5039666;28;20166;-79
2022/03/05 03:03:09;;;;;;;8.23;3.43;;;0.50;80.90;;;;;;5026029;28;20503;-79
2022/03/05 03:05:36;;;;;;;8.93;3.10;;;0.50;81.00;;;;;;5045797;28;20237;-79
2022/03/05 03:08:04;;;;;;;6.77;2.53;;;0.50;81.00;;;;;;5045008;28;20044;-79
2022/03/05 03:10:32;;;;;;;9.03;3.90;;;0.50;81.10;;;;;;5061928;28;20060;-79
2022/03/05 03:12:59;;;;;;;9.50;3.17;;;0.50;81.20;;;;;;5029083;28;20036;-79
2022/03/05 03:15:26;;;;;;;7.53;2.70;;;0.40;81.10;;;;;;5045623;28;20082;-79
2022/03/05 03:17:54;;;;;;;7.70;2.83;;;0.40;81.20;;;;;;5043195;28;20484;-79
2022/03/05 03:20:23;;;;;;;8.60;2.80;;;0.40;81.20;;;;;;5040681;28;20053;-79
2022/03/05 03:22:52;;;;;;;8.43;2.70;;;0.40;81.30;;;;;;5056526;28;20063;-80
2022/03/05 03:25:23;;;;;;;10.20;2.93;;;0.40;81.30;;;;;;5040147;28;20441;-79
2022/03/05 03:27:50;;;;;;;10.93;3.77;;;0.40;81.40;;;;;;5040186;28;20493;-79
2022/03/05 03:30:19;;;;;;;10.40;3.90;;;0.40;81.40;;;;;;5024098;28;20068;-79
2022/03/05 03:32:46;;;;;;;10.67;4.50;;;0.40;81.40;;;;;;5057012;28;20393;-79
2022/03/05 03:35:15;;;;;;;10.40;4.20;;;0.30;81.40;;;;;;5039706;28;20041;-79
2022/03/05 03:37:43;;;;;;;11.47;4.50;;;0.30;81.40;;;;;;5039099;28;20040;-79
2022/03/05 03:40:13;;;;;;;10.67;4.17;;;0.30;81.40;;;;;;5040098;28;20464;-79
2022/03/05 03:42:40;;;;;;;9.87;3.23;;;0.30;81.50;;;;;;5040341;28;20120;-79
2022/03/05 03:45:09;;;;;;;9.33;3.37;;;0.30;81.50;;;;;;5039438;28;20052;-79
2022/03/05 03:47:36;;;;;;;9.50;3.70;;;0.30;81.50;;;;;;5039826;28;20036;-79
2022/03/05 03:50:05;;;;;;;12.27;4.23;;;0.30;81.50;;;;;;5039720;28;20051;-79
2022/03/05 03:52:33;;;;;;;11.70;4.50;;;0.30;81.70;;;;;;5023560;28;20051;-79
2022/03/05 03:55:02;;;;;;;12.23;4.50;;;0.30;81.70;;;;;;5024317;28;20037;-79
2022/03/05 03:57:29;;;;;;;13.13;5.47;;;0.20;81.70;;;;;;5039600;28;20079;-79
2022/03/05 03:59:56;;;;;;;11.77;4.70;;;0.20;81.70;;;;;;5007506;28;20127;-79
2022/03/05 04:02:24;;;;;;;13.83;5.03;;;0.20;81.70;;;;;;5039590;28;20455;-79
2022/03/05 04:04:52;;;;;;;11.00;4.43;;;0.20;81.70;;;;;;5056056;28;20056;-79
2022/03/05 04:10:05;;;;;;;11.20;4.37;;;0.20;81.70;;;;;;5058906;28;20041;-79
2022/03/05 04:12:32;;;;;;;10.30;3.77;;;0.20;81.80;;;;;;5039384;28;20514;-79
2022/03/05 04:14:59;;;;;;;11.03;4.43;;;0.20;81.80;;;;;;5023467;28;20044;-79
2022/03/05 04:17:26;;;;;;;11.40;4.20;;;0.10;81.80;;;;;;5039275;28;20067;-78
2022/03/05 04:19:53;;;;;;;10.70;3.50;;;0.10;81.80;;;;;;5039269;28;20071;-78
2022/03/05 04:22:22;;;;;;;11.80;4.43;;;0.10;81.80;;;;;;5023388;28;20523;-78
2022/03/05 04:24:49;;;;;;;10.90;4.13;;;0.10;81.90;;;;;;5055630;28;20489;-78
2022/03/05 04:27:17;;;;;;;13.73;4.73;;;0.10;81.90;;;;;;5039203;28;20454;-78
2022/03/05 04:29:44;;;;;;;13.20;5.40;;;0.20;81.90;;;;;;5039571;28;20048;-78
2022/03/05 04:32:11;;;;;;;11.67;4.77;;;0.10;81.90;;;;;;5039432;28;20049;-78
2022/03/05 04:34:38;;;;;;;15.37;5.17;;;0.10;81.90;;;;;;5022705;28;20045;-78
2022/03/05 04:37:07;;;;;;;11.63;4.30;;;0.10;82.00;;;;;;5039247;28;20044;-78
2022/03/05 04:39:34;;;;;;;10.30;3.87;;;0.10;82.00;;;;;;5038879;28;20058;-79
2022/03/05 04:42:01;;;;;;;12.03;5.17;;;0.10;82.00;;;;;;5022443;28;20045;-78
2022/03/05 04:44:28;;;;;;;9.03;3.43;;;0.00;82.00;;;;;;5038781;28;20183;-78
2022/03/05 04:46:55;;;;;;;10.43;3.80;;;0.00;82.00;;;;;;5022710;28;20072;-78
2022/03/05 04:49:23;;;;;;;11.43;4.47;;;0.00;82.00;;;;;;5022318;28;20051;-79
2022/03/05 04:51:50;;;;;;;10.60;4.30;;;0.00;82.10;;;;;;5038809;28;20044;-78
2022/03/05 04:54:17;;;;;;;10.90;3.93;;;0.00;82.20;;;;;;5038619;28;20489;-79
2022/03/05 04:56:46;;;;;;;12.07;4.13;;;0.00;82.20;;;;;;5022719;28;20775;-79
2022/03/05 04:59:13;;;;;;;10.63;3.70;;;0.00;82.20;;;;;;5038061;28;20040;-79
2022/03/05 05:01:40;;;;;;;10.17;3.10;;;0.00;82.20;;;;;;5038679;28;20037;-79
2022/03/05 05:04:08;;;;;;;9.80;3.30;;;0.00;82.20;;;;;;5055191;28;20361;-79
2022/03/05 05:06:35;;;;;;;10.33;4.00;;;0.00;82.30;;;;;;5054918;28;20453;-78
2022/03/05 05:09:02;;;;;;;8.97;3.03;;;0.00;82.30;;;;;;5022178;28;20032;-78
2022/03/05 05:11:29;;;;;;;10.77;3.50;;;0.00;82.60;;;;;;5038474;28;20133;-79
2022/03/05 05:13:56;;;;;;;12.30;4.13;;;0.00;82.30;;;;;;5038522;28;20075;-79
2022/03/05 05:16:24;;;;;;;11.40;3.70;;;-0.10;82.30;;;;;;5054736;28;20044;-79
2022/03/05 05:21:38;;;;;;;12.33;5.00;;;-0.10;82.30;;;;;;5043662;28;20052;-78
2022/03/05 05:24:06;;;;;;;13.03;4.00;;;-0.10;82.30;;;;;;5038020;28;20474;-78
2022/03/05 05:26:33;;;;;;;8.57;3.20;;;-0.10;82.40;;;;;;5054464;28;20040;-79
2022/03/05 05:29:00;;;;;;;10.17;3.83;;;-0.10;82.40;;;;;;5005390;28;20157;-79
2022/03/05 05:31:27;;;;;;;11.90;4.43;;;-0.10;82.50;;;;;;5037979;28;20143;-79
2022/03/05 05:33:54;;;;;;;8.90;3.83;;;-0.20;83.00;;;;;;5021674;28;20040;-78
2022/03/05 05:36:21;;;;;;;11.07;3.23;;;-0.10;82.50;;;;;;5005565;28;20492;-78
2022/03/05 05:38:49;;;;;;;12.07;3.90;;;-0.10;82.60;;;;;;5054793;28;20446;-78
2022/03/05 05:41:18;;;;;;;10.53;4.40;;;-0.20;82.60;;;;;;5055003;28;21473;-79
2022/03/05 05:43:46;;;;;;;7.07;2.57;;;-0.20;82.60;;;;;;5066311;28;20131;-78
2022/03/05 05:46:16;;;;;;;10.03;3.13;;;-0.20;82.60;;;;;;5035461;28;20091;-78
2022/03/05 05:48:55;;;;;;;9.03;3.03;;;-0.20;82.60;;;;;;4989716;28;20056;-78
2022/03/05 05:51:25;;;;;;;12.77;3.93;;;-0.20;82.60;;;;;;5018111;28;20041;-78
2022/03/05 05:53:55;;;;;;;8.90;3.88;;;-0.20;82.70;;;;;;5003175;28;20045;-78
2022/03/05 05:56:23;;;;;;;8.97;3.37;;;-0.20;82.80;;;;;;5001892;28;20053;-78
2022/03/05 05:58:50;;;;;;;10.13;4.00;;;-0.20;82.80;;;;;;5001940;28;20115;-78
2022/03/05 06:01:17;;;;;;;10.33;3.67;;;-0.20;82.90;;;;;;4988535;28;20106;-78
2022/03/05 06:03:45;;;;;;;11.43;4.57;;;-0.20;82.80;;;;;;5005705;28;20148;-79
2022/03/05 06:06:12;;;;;;;12.07;3.83;;;-0.20;82.80;;;;;;5037766;28;20102;-79
2022/03/05 06:08:40;;;;;;;9.77;3.63;;;-0.30;82.80;;;;;;5005319;28;20404;-79
2022/03/05 06:11:06;;;;;;;17.47;7.10;;;-0.20;82.90;;;;;;5022182;28;20049;-78
2022/03/05 06:13:34;;;;;;;9.30;4.07;;;-0.20;82.90;;;;;;5006145;28;20041;-78
2022/03/05 06:16:04;;;;;;;11.63;4.53;;;-0.30;82.90;;;;;;5039190;28;20040;-78
2022/03/05 06:18:32;;;;;;;13.67;4.10;;;-0.20;83.00;;;;;;5022302;28;20037;-78
2022/03/05 06:20:59;;;;;;;13.60;6.00;;;-0.30;82.90;;;;;;5021860;28;20064;-78
2022/03/05 06:23:29;;;;;;;13.10;4.60;;;-0.30;82.90;;;;;;5021838;28;20560;-78
2022/03/05 06:25:56;;;;;;;10.30;3.87;;;-0.30;83.00;;;;;;5021791;28;20044;-78
2022/03/05 06:28:23;;;;;;;9.83;2.77;;;-0.30;83.10;;;;;;5005441;28;20052;-78
2022/03/05 06:30:51;;;;;;;9.63;2.73;;;-0.30;83.10;;;;;;5005649;28;20045;-78
2022/03/05 06:33:18;;;;;;;9.23;2.83;;;-0.30;83.10;;;;;;5037804;28;20065;-78
2022/03/05 06:35:46;;;;;;;10.33;2.90;;;-0.30;83.20;;;;;;5023928;28;20045;-78
2022/03/05 06:38:13;;;;;;;11.60;3.13;;;-0.30;83.20;;;;;;5024483;28;20053;-78
2022/03/05 06:40:44;;;;;;;8.80;3.83;;;-0.30;83.30;;;;;;5041758;28;20044;-78
2022/03/05 06:43:12;;;;;;;10.27;4.10;;;-0.30;83.10;;;;;;5049200;28;20048;-78
2022/03/05 06:45:39;;;;;;;11.27;3.83;;;-0.30;83.10;;;;;;5038617;28;20045;-78
2022/03/05 06:48:07;;;;;;;10.17;3.37;;;-0.30;83.10;;;;;;5044484;28;20044;-78
2022/03/05 06:50:37;;;;;;;12.27;3.33;;;-0.20;83.20;;;;;;5021784;28;20041;-78
2022/03/05 06:53:05;;;;;;;12.80;3.27;;;-0.20;83.10;;;;;;5037641;28;20465;-77
2022/03/05 06:55:32;;;;;;;6.77;2.50;;;-0.20;83.10;;;;;;5021366;28;20048;-78
2022/03/05 06:58:03;;;;;;;8.33;3.17;;;-0.20;83.10;;;;;;4989989;28;20053;-78
2022/03/05 07:00:34;;;;;;;8.07;3.00;;;-0.20;83.00;;;;;;5037880;28;20045;-82
2022/03/05 07:03:52;;;;;;;10.43;3.87;;;-0.10;83.00;;;;;;5058316;28;20061;-80
2022/03/05 07:06:19;;;;;;;10.80;3.40;;;-0.10;82.90;;;;;;5037432;28;20069;-78
2022/03/05 07:08:47;;;;;;;9.20;3.60;;;-0.10;82.80;;;;;;5021319;28;20041;-80
2022/03/05 07:11:14;;;;;;;12.53;4.13;;;0.00;82.90;;;;;;5020012;28;20033;-80
2022/03/05 07:13:48;;;;;;;13.17;4.30;;;0.00;82.80;;;;;;5021019;28;20132;-80
2022/03/05 07:16:16;;;;;;;11.93;4.37;;;0.10;82.90;;;;;;5021334;28;20091;-80
2022/03/05 07:18:44;;;;;;;11.70;4.30;;;0.10;82.80;;;;;;5020333;28;20052;-80
2022/03/05 07:21:12;;;;;;;11.67;3.50;;;0.10;82.80;;;;;;5037470;28;20047;-80
2022/03/05 07:23:40;;;;;;;11.47;4.80;;;0.20;82.80;;;;;;5054775;28;20135;-80
2022/03/05 07:26:07;;;;;;;12.60;4.33;;;0.20;82.70;;;;;;5020368;28;20102;-80
2022/03/05 07:28:34;;;;;;;9.60;3.70;;;0.20;82.70;;;;;;5036759;28;20036;-79
2022/03/05 07:31:02;;;;;;;11.30;3.50;;;0.30;82.70;;;;;;5037082;28;20044;-79
2022/03/05 07:33:29;;;;;;;8.97;3.53;;;0.30;82.60;;;;;;5020916;28;20044;-79
2022/03/05 07:35:57;;;;;;;9.30;3.30;;;0.40;82.70;;;;;;5037150;28;20350;-79
2022/03/05 07:38:26;;;;;;;9.37;3.77;;;0.40;82.60;;;;;;5005076;28;20049;-79
2022/03/05 07:40:54;;;;;;;11.17;4.20;;;0.40;82.50;;;;;;5020498;28;20049;-79
2022/03/05 07:43:23;;;;;;;12.67;4.87;;;0.50;82.50;;;;;;5041917;28;20467;-79
2022/03/05 07:45:50;;;;;;;12.63;4.53;;;0.50;82.50;;;;;;5039986;28;20049;-80
2022/03/05 07:48:21;;;;;;;11.07;4.40;;;0.60;82.40;;;;;;5039905;28;20047;-79
2022/03/05 07:50:49;;;;;;;14.97;5.07;;;0.60;82.40;;;;;;5056453;28;20041;-77
2022/03/05 07:53:16;;;;;;;12.70;4.67;;;0.60;82.30;;;;;;5056891;28;20060;-79
2022/03/05 07:55:46;;;;;;;13.77;5.40;;;0.70;82.30;;;;;;5040948;28;20111;-78
2022/03/05 07:58:14;;;;;;;14.00;5.70;;;0.70;82.30;;;;;;5039798;28;20121;-78
2022/03/05 08:00:41;;;;;;;11.77;4.47;;;0.80;82.30;;;;;;5056551;28;20072;-78
2022/03/05 08:03:08;;;;;;;10.87;3.97;;;0.80;82.20;;;;;;5023411;28;20044;-78
2022/03/05 08:05:35;;;;;;;13.10;4.63;;;0.90;82.20;;;;;;5039615;28;20076;-78
2022/03/05 08:08:03;;;;;;;13.57;5.27;;;0.90;82.10;;;;;;5039544;28;20113;-78
2022/03/05 08:10:31;;;;;;;12.33;4.10;;;1.00;82.10;;;;;;5040245;28;20040;-78
2022/03/05 08:12:58;;;;;;;10.20;4.43;;;1.00;82.00;;;;;;5007310;28;20094;-78
2022/03/05 08:15:26;;;;;;;10.07;3.30;;;1.10;81.90;;;;;;5055544;28;20071;-78
2022/03/05 08:17:58;;;;;;;12.17;4.20;;;1.20;81.90;;;;;;5039381;28;20326;-78
2022/03/05 08:20:27;;;;;;;;;;;1.20;81.90;;;;;;5056549;28;20056;-79
2022/03/05 08:22:57;;;;;;;13.17;4.13;;;1.30;81.90;;;;;;5039330;28;19921;-78
2022/03/05 08:25:24;;;;;;;9.10;3.63;;;1.30;81.80;;;;;;5056020;28;20040;-78
2022/03/05 08:27:54;;;;;;;10.20;3.87;;;1.40;81.70;;;;;;5055970;28;20493;-78
2022/03/05 08:30:21;;;;;;;10.13;3.40;;;1.50;81.60;;;;;;5056010;28;20433;-78
2022/03/05 08:33:01;;;;;;;8.10;3.13;;;1.50;81.50;;;;;;5022792;28;20135;-82
2022/03/05 08:35:55;;;;;;;10.50;4.03;;;1.60;81.50;;;;;;5043713;28;20397;-81
2022/03/05 08:38:22;;;;;;;8.43;3.13;;;1.60;81.40;;;;;;5055555;28;20062;-80
2022/03/05 08:40:52;;;;;;;9.70;3.80;;;1.70;81.40;;;;;;5039876;28;20078;-80
2022/03/05 08:43:23;;;;;;;7.57;2.93;;;1.80;81.40;;;;;;5053090;28;20110;-79
2022/03/05 08:45:50;;;;;;;9.77;3.70;;;1.90;81.30;;;;;;5035509;28;20044;-79
2022/03/05 08:48:18;;;;;;;10.67;3.20;;;1.80;81.20;;;;;;5002549;28;20114;-79
2022/03/05 08:50:46;;;;;;;14.07;4.13;;;1.90;81.20;;;;;;5002587;28;20052;-79
2022/03/05 08:53:15;;;;;;;10.37;3.30;;;1.90;81.10;;;;;;5035655;28;20064;-79
2022/03/05 08:55:46;;;;;;;10.13;3.27;;;2.00;81.10;;;;;;5002892;28;20132;-79
2022/03/05 08:58:15;;;;;;;10.20;3.37;;;2.10;81.10;;;;;;5019420;28;20049;-79
2022/03/05 09:00:42;;;;;;;8.63;3.17;;;2.10;81.10;;;;;;5035398;28;20073;-81
2022/03/05 09:03:09;;;;;;;11.03;4.73;;;2.10;81.00;;;;;;5003144;28;20036;-81
2022/03/05 09:05:40;;;;;;;11.07;3.83;;;2.20;81.00;;;;;;5002771;28;20041;-82
2022/03/05 09:08:14;;;;;;;12.30;4.67;;;2.20;80.90;;;;;;5019125;28;20037;-82
2022/03/05 09:10:53;;;;;;;15.23;5.38;;;2.30;81.50;;;;;;5019938;28;20048;-82
2022/03/05 09:13:23;;;;;;;12.50;3.77;;;2.30;80.80;;;;;;5018498;28;20055;-82
2022/03/05 09:15:55;;;;;;;16.67;5.57;;;2.30;80.80;;;;;;5052831;28;20516;-82
2022/03/05 09:18:23;;;;;;;10.55;4.18;;;2.40;80.80;;;;;;5018806;28;20489;-82
2022/03/05 09:20:53;;;;;;;12.77;5.17;;;2.40;80.70;;;;;;5003474;28;20064;-82
2022/03/05 09:23:23;;;;;;;13.33;5.77;;;2.40;80.70;;;;;;5019131;28;20515;-82
2022/03/05 09:25:50;;;;;;;13.80;5.53;;;2.40;80.60;;;;;;5018328;28;20095;-82
2022/03/05 09:28:20;;;;;;;12.00;4.10;;;2.50;80.50;;;;;;5034373;28;20092;-81
2022/03/05 09:30:50;;;;;;;11.80;4.50;;;2.50;80.50;;;;;;5018687;28;20139;-82
2022/03/05 09:33:17;;;;;;;13.87;5.23;;;2.50;80.40;;;;;;5035053;28;20048;-81
2022/03/05 09:35:49;;;;;;;13.00;4.93;;;2.60;80.50;;;;;;5011741;28;20036;-81
2022/03/05 09:38:17;;;;;;;15.97;5.63;;;2.60;80.40;;;;;;5033378;28;20132;-81
2022/03/05 09:40:45;;;;;;;12.90;4.80;;;2.70;80.40;;;;;;5022474;28;20110;-80
2022/03/05 09:43:13;;;;;;;12.70;5.07;;;2.70;80.30;;;;;;5026140;28;20064;-79
2022/03/05 09:45:44;;;;;;;13.57;4.93;;;2.70;80.30;;;;;;5062494;28;20062;-80
2022/03/05 09:48:20;;;;;;;13.67;5.47;;;2.70;80.30;;;;;;5059478;28;20402;-80
2022/03/05 09:50:47;;;;;;;13.20;5.67;;;2.80;80.20;;;;;;5054612;28;20055;-81
2022/03/05 09:53:21;;;;;;;15.67;6.80;;;2.80;80.10;;;;;;5037722;28;20106;-82
2022/03/05 09:55:49;;;;;;;13.50;5.97;;;2.90;80.10;;;;;;5032920;28;20079;-82
2022/03/05 09:58:38;;;;;;;15.10;6.57;;;3.00;80.00;;;;;;5040456;28;20040;-82
2022/03/05 10:01:05;;;;;;;14.40;5.97;;;3.00;80.00;;;;;;5054506;28;20068;-82
2022/03/05 10:03:46;;;;;;;12.17;5.37;;;3.00;79.90;;;;;;5054674;28;20119;-82
2022/03/05 10:06:16;;;;;;;;;;;3.10;79.90;;;;;;5039211;28;20032;-82
2022/03/05 10:08:50;;;;;;;13.73;5.83;;;3.10;79.90;;;;;;5038200;28;19989;-82
2022/03/05 10:11:21;;;;;;;16.60;6.30;;;3.10;79.70;;;;;;5037671;28;20121;-80
2022/03/05 10:13:59;;;;;;;15.63;6.00;;;3.20;79.70;;;;;;5037805;28;20045;-82
2022/03/05 10:17:01;;;;;;;18.05;6.80;;;3.20;80.30;;;;;;5042354;28;20116;-79
2022/03/05 10:19:37;;;;;;;15.67;6.13;;;3.20;79.70;;;;;;5055633;28;20070;-80
2022/03/05 10:23:21;;;;;;;16.13;6.27;;;3.30;79.70;;;;;;5053963;28;20131;-80
2022/03/05 10:26:04;;;;;;;16.03;6.27;;;3.40;79.60;;;;;;5037599;28;20045;-79
2022/03/05 10:32:15;;;;;;;17.37;7.03;;;3.50;79.30;;;;;;5033918;28;20055;-82
2022/03/05 10:35:04;;;;;;;16.37;7.13;;;3.60;79.30;;;;;;5033756;28;20452;-80
2022/03/05 10:37:34;;;;;;;18.57;7.70;;;3.60;79.30;;;;;;5033820;28;20143;-86
2022/03/05 10:40:15;;;;;;;19.17;8.73;;;3.70;79.20;;;;;;5019560;28;20041;-80
2022/03/05 10:42:50;;;;;;;20.30;8.50;;;3.70;79.10;;;;;;5052262;28;20041;-82
2022/03/05 10:45:18;;;;;;;18.40;8.03;;;3.80;79.10;;;;;;5052594;28;20526;-84
2022/03/05 10:47:59;;;;;;;22.60;8.67;;;3.90;79.10;;;;;;5027463;28;20044;-81
2022/03/05 10:50:39;;;;;;;22.42;9.05;;;3.90;78.80;;;;;;5058484;28;20463;-82
2022/03/05 10:53:50;;;;;;;18.50;7.13;;;4.00;78.80;;;;;;5041295;28;20044;-83
2022/03/05 10:56:35;;;;;;;13.80;6.70;;;4.10;78.70;;;;;;5057642;28;20053;-84
2022/03/05 10:59:09;;;;;;;16.77;6.90;;;4.10;78.80;;;;;;5041701;28;20032;-82
2022/03/05 11:01:40;;;;;;;14.30;7.53;;;4.10;78.70;;;;;;5057862;28;20094;-82
2022/03/05 11:04:09;;;;;;;18.83;8.03;;;4.20;78.60;;;;;;5041106;28;20234;-83
2022/03/05 11:06:40;;;;;;;14.37;6.40;;;4.30;78.60;;;;;;5041099;28;20040;-79
2022/03/05 11:09:09;;;;;;;16.20;7.23;;;4.30;78.60;;;;;;5061066;28;20024;-80
2022/03/05 11:11:45;;;;;;;14.07;6.83;;;4.30;78.60;;;;;;5077485;28;20436;-82
2022/03/05 11:14:17;;;;;;;15.13;6.70;;;4.30;78.50;;;;;;5061333;28;20044;-83
2022/03/05 11:17:12;;;;;;;13.00;6.90;;;4.40;78.50;;;;;;5081294;28;20427;-79
2022/03/05 11:19:40;;;;;;;15.52;6.35;;;4.40;78.50;;;;;;5077119;28;20491;-81
2022/03/05 11:22:08;;;;;;;15.50;7.00;;;4.40;78.50;;;;;;5060457;28;20048;-79
2022/03/05 11:24:39;;;;;;;14.13;6.35;;;4.50;78.40;;;;;;5060773;28;20385;-81
2022/03/05 11:27:11;;;;;;;15.95;7.20;;;4.50;78.20;;;;;;5077204;28;20532;-77
2022/03/05 11:29:58;;;;;;;13.75;6.47;;;4.60;78.10;;;;;;5059572;28;20492;-82
2022/03/05 11:32:30;;;;;;;19.20;8.18;;;4.70;78.00;;;;;;5059585;28;20048;-76
2022/03/05 11:34:59;;;;;;;12.85;5.50;;;4.80;78.60;;;;;;5077139;28;20044;-83
2022/03/05 11:41:25;;;;;;;18.55;7.35;;;4.90;77.70;;;;;;5094866;28;20515;-79
2022/03/05 11:43:52;;;;;;;21.40;9.05;;;4.90;77.50;;;;;;5076701;28;20051;-81
2022/03/05 11:46:27;;;;;;;18.23;7.68;;;5.00;77.60;;;;;;5060301;28;20044;-78
2022/03/05 11:49:02;;;;;;;22.63;7.75;;;5.00;77.40;;;;;;5077702;28;20040;-79
2022/03/05 11:51:50;;;;;;;15.68;7.25;;;5.00;77.30;;;;;;5077107;28;20407;-77
2022/03/05 11:54:17;;;;;;;15.57;6.60;;;5.10;77.30;;;;;;5059823;28;20063;-78
2022/03/05 11:57:16;;;;;;;19.92;7.85;;;5.10;77.30;;;;;;5059166;28;20044;-78
2022/03/05 11:59:51;;;;;;;16.27;6.95;;;5.20;77.20;;;;;;5040776;28;20076;-77
2022/03/05 12:02:41;;;;;;;14.93;6.50;;;5.20;77.00;;;;;;5039949;28;20044;-79
2022/03/05 12:05:33;;;;;;;14.80;6.85;;;5.30;76.80;;;;;;5040420;28;20057;-80
2022/03/05 12:08:05;;;;;;;15.63;6.20;;;5.40;76.80;;;;;;5056810;28;20044;-78
2022/03/05 12:10:57;;;;;;;15.52;6.47;;;5.40;76.80;;;;;;5056143;28;20045;-80
2022/03/05 12:13:30;;;;;;;12.20;5.63;;;5.40;76.80;;;;;;5040751;28;20043;-77
2022/03/05 12:15:57;;;;;;;;;;;5.50;76.60;;;;;;5094981;28;20071;-76
2022/03/05 12:18:25;;;;;;;14.95;7.10;;;5.60;76.60;;;;;;5075734;28;19946;-75
2022/03/05 12:20:52;;;;;;;14.50;6.65;;;5.60;76.40;;;;;;5076146;28;20040;-76
2022/03/05 12:23:20;;;;;;;15.73;7.35;;;5.70;76.30;;;;;;5094041;28;20047;-77
2022/03/05 12:25:49;;;;;;;15.35;6.65;;;5.70;76.20;;;;;;5094104;28;20036;-78
2022/03/05 12:28:23;;;;;;;15.82;6.95;;;5.70;76.20;;;;;;5059382;28;20040;-79
2022/03/05 12:30:58;;;;;;;15.18;7.47;;;5.80;76.70;;;;;;5059342;28;20518;-79
2022/03/05 12:33:26;;;;;;;18.08;6.88;;;5.70;76.60;;;;;;5043576;28;20044;-77
2022/03/05 12:35:55;;;;;;;14.27;7.07;;;5.80;75.90;;;;;;5076811;28;20066;-77
2022/03/05 12:38:23;;;;;;;15.63;7.72;;;5.80;75.90;;;;;;5051069;28;20052;-81
2022/03/05 12:40:51;;;;;;;16.58;7.30;;;5.90;75.80;;;;;;5059491;28;20048;-78
2022/03/05 12:43:19;;;;;;;16.88;7.85;;;5.90;75.70;;;;;;5041136;28;20051;-79
2022/03/05 12:45:48;;;;;;;16.02;6.82;;;6.00;75.70;;;;;;5055915;28;20067;-76
2022/03/05 12:48:20;;;;;;;15.10;7.57;;;6.00;75.70;;;;;;5023180;28;20090;-76
2022/03/05 12:50:52;;;;;;;17.65;7.22;;;6.10;75.70;;;;;;5055282;28;20060;-76
2022/03/05 12:53:21;;;;;;;13.45;6.57;;;6.10;75.50;;;;;;5038973;28;20050;-77
2022/03/05 12:55:52;;;;;;;15.20;6.85;;;6.10;75.40;;;;;;5036076;28;20045;-77
2022/03/05 12:58:25;;;;;;;15.48;7.53;;;6.10;75.40;;;;;;5033095;28;20456;-77
2022/03/05 13:00:57;;;;;;;17.70;7.55;;;6.20;75.20;;;;;;5055241;28;20135;-77
2022/03/05 13:03:27;;;;;;;16.27;7.57;;;6.30;75.10;;;;;;5038884;28;20044;-77
2022/03/05 13:05:56;;;;;;;12.90;5.93;;;6.30;75.00;;;;;;5055040;28;20039;-77
2022/03/05 13:08:29;;;;;;;11.88;6.20;;;6.40;75.00;;;;;;5055060;28;20114;-76
2022/03/05 13:11:07;;;;;;;12.50;6.18;;;6.40;74.80;;;;;;5039022;28;20063;-77
2022/03/05 13:13:42;;;;;;;13.60;6.78;;;6.50;74.70;;;;;;5039199;28;20409;-77
2022/03/05 13:16:11;;;;;;;13.52;6.40;;;6.50;74.70;;;;;;5024179;28;20045;-79
2022/03/05 13:18:39;;;;;;;14.35;6.40;;;6.50;74.70;;;;;;5035198;28;20064;-80
2022/03/05 13:21:08;;;;;;;11.80;5.97;;;6.50;74.70;;;;;;5019053;28;20075;-78
2022/03/05 13:23:40;;;;;;;13.57;6.70;;;6.50;74.60;;;;;;5035745;28;20095;-81